createdAt,value
2022-12-23T00:00:45.272Z,95735.13
2022-12-23T00:03:12.266Z,95732.91
2022-12-23T00:05:40.682Z,95738.91
2022-12-23T00:08:08.402Z,95734.19
2022-12-23T00:10:39.529Z,95737.69
2022-12-23T00:13:25.791Z,95734.44
2022-12-23T00:16:12.664Z,95726.94
2022-12-23T00:18:40.674Z,95729.69
2022-12-23T00:21:14.865Z,95732.56
2022-12-23T00:23:46.054Z,95724.75
2022-12-23T00:26:22.625Z,95721.91
2022-12-23T00:28:49.978Z,95722.31
2022-12-23T00:31:18.688Z,95726.50
2022-12-23T00:33:48.750Z,95725.09
2022-12-23T00:36:24.380Z,95727.97
2022-12-23T00:39:10.129Z,95716.53
2022-12-23T00:41:56.890Z,95722.13
2022-12-23T00:44:24.128Z,95730.66
2022-12-23T00:46:50.990Z,95727.00
2022-12-23T00:49:37.954Z,95727.88
2022-12-23T00:52:07.349Z,95732.91
2022-12-23T00:54:34.175Z,95734.22
2022-12-23T00:57:01.596Z,95755.44
2022-12-23T00:59:28.405Z,95742.47
2022-12-23T01:02:30.584Z,95744.81
2022-12-23T01:05:15.836Z,95754.19
2022-12-23T01:07:42.703Z,95750.53
2022-12-23T01:10:09.937Z,95752.03
2022-12-23T01:12:36.756Z,95766.34
2022-12-23T01:15:03.756Z,95753.34
2022-12-23T01:17:30.507Z,95758.78
2022-12-23T01:19:57.250Z,95757.78
2022-12-23T01:22:24.016Z,95773.13
2022-12-23T01:24:50.803Z,95760.91
2022-12-23T01:27:17.559Z,95771.06
2022-12-23T01:29:45.759Z,95780.41
2022-12-23T01:32:12.596Z,95779.81
2022-12-23T01:34:39.355Z,95775.53
2022-12-23T01:37:06.193Z,95801.03
2022-12-23T01:39:33.072Z,95789.66
2022-12-23T01:42:18.201Z,95789.25
2022-12-23T01:45:06.095Z,95794.00
2022-12-23T01:47:37.805Z,95793.81
2022-12-23T01:50:19.535Z,95795.91
2022-12-23T01:53:04.755Z,95805.00
2022-12-23T01:55:49.955Z,95812.91
2022-12-23T01:58:21.313Z,95816.84
2022-12-23T02:01:07.394Z,95819.97
2022-12-23T02:03:43.464Z,95830.31
2022-12-23T02:06:37.844Z,95827.84
2022-12-23T02:09:31.186Z,95836.16
2022-12-23T02:12:31.871Z,95846.06
2022-12-23T02:15:52.021Z,95843.59
2022-12-23T02:18:33.914Z,95851.88
2022-12-23T02:21:22.580Z,95853.75
2022-12-23T02:24:24.927Z,95869.50
2022-12-23T02:27:20.672Z,95851.63
2022-12-23T02:30:28.907Z,95856.19
2022-12-23T02:33:19.440Z,95865.75
2022-12-23T02:36:28.585Z,95868.44
2022-12-23T02:39:07.880Z,95869.28
2022-12-23T02:42:05.981Z,95861.84
2022-12-23T02:45:10.874Z,95878.00
2022-12-23T02:47:48.071Z,95879.28
2022-12-23T02:50:20.462Z,95887.97
2022-12-23T02:52:49.509Z,95892.97
2022-12-23T02:55:22.748Z,95885.06
2022-12-23T02:57:51.355Z,95897.31
2022-12-23T03:00:18.777Z,95895.06
2022-12-23T03:02:45.806Z,95896.72
2022-12-23T03:05:41.478Z,95896.50
2022-12-23T03:08:25.670Z,95910.41
2022-12-23T03:11:01.343Z,95917.44
2022-12-23T03:13:48.165Z,95932.78
2022-12-23T03:16:24.265Z,95929.44
2022-12-23T03:19:31.182Z,95932.56
2022-12-23T03:22:35.827Z,95925.09
2022-12-23T03:25:32.007Z,95936.09
2022-12-23T03:28:15.307Z,95946.44
2022-12-23T03:30:48.199Z,95936.69
2022-12-23T03:33:27.739Z,95943.50
2022-12-23T03:36:05.213Z,95958.84
2022-12-23T03:38:35.769Z,95941.00
2022-12-23T03:41:14.085Z,95941.41
2022-12-23T03:43:54.758Z,95945.53
2022-12-23T03:46:34.784Z,95951.31
2022-12-23T03:49:08.579Z,95950.66
2022-12-23T03:51:52.426Z,95949.41
2022-12-23T03:54:31.424Z,95947.56
2022-12-23T03:57:04.679Z,95969.13
2022-12-23T03:59:36.337Z,95978.22
2022-12-23T04:02:55.072Z,95964.47
2022-12-23T04:05:27.422Z,95961.78
2022-12-23T04:08:05.360Z,95972.94
2022-12-23T04:10:32.351Z,95980.28
2022-12-23T04:12:59.427Z,95958.03
2022-12-23T04:15:27.875Z,95956.59
2022-12-23T04:17:56.857Z,95966.94
2022-12-23T04:20:24.801Z,95965.28
2022-12-23T04:22:51.640Z,95954.50
2022-12-23T04:25:18.540Z,95945.56
2022-12-23T04:27:45.320Z,95949.94
2022-12-23T04:30:13.704Z,95948.91
2022-12-23T04:32:41.535Z,95965.69
2022-12-23T04:35:09.736Z,95969.25
2022-12-23T04:37:37.374Z,95969.03
2022-12-23T04:40:05.385Z,95943.56
2022-12-23T04:42:32.212Z,95973.38
2022-12-23T04:44:59.143Z,95969.03
2022-12-23T04:47:26.569Z,95969.41
2022-12-23T04:49:53.470Z,95972.13
2022-12-23T04:52:20.565Z,95976.66
2022-12-23T04:54:47.369Z,95988.47
2022-12-23T04:57:15.845Z,95980.78
2022-12-23T04:59:42.709Z,95981.44
2022-12-23T05:02:10.391Z,95977.50
2022-12-23T05:04:37.560Z,95981.47
2022-12-23T05:07:04.407Z,95991.19
2022-12-23T05:09:31.300Z,95992.72
2022-12-23T05:11:58.054Z,96003.28
2022-12-23T05:14:24.895Z,95999.59
2022-12-23T05:16:51.718Z,96000.19
2022-12-23T05:19:18.528Z,96009.56
2022-12-23T05:21:45.397Z,96008.13
2022-12-23T05:24:12.263Z,96010.44
2022-12-23T05:26:39.053Z,96009.19
2022-12-23T05:29:06.073Z,96001.97
2022-12-23T05:31:33.261Z,96008.63
2022-12-23T05:34:06.024Z,96001.16
2022-12-23T05:36:33.494Z,95999.13
2022-12-23T05:39:00.293Z,96008.47
2022-12-23T05:41:27.054Z,96021.97
2022-12-23T05:43:54.011Z,96020.72
2022-12-23T05:46:26.224Z,96024.06
2022-12-23T05:48:53.614Z,96021.97
2022-12-23T05:51:20.451Z,96024.28
2022-12-23T05:53:47.263Z,96029.91
2022-12-23T05:56:14.249Z,96031.19
2022-12-23T05:58:41.280Z,96032.44
2022-12-23T06:01:08.090Z,96034.75
2022-12-23T06:03:35.109Z,96023.56
2022-12-23T06:06:02.209Z,96021.50
2022-12-23T06:08:29.100Z,96025.44
2022-12-23T06:10:55.893Z,96029.81
2022-12-23T06:13:22.725Z,96025.06
2022-12-23T06:15:49.535Z,96026.72
2022-12-23T06:18:16.451Z,96033.78
2022-12-23T06:20:47.375Z,96035.84
2022-12-23T06:23:14.441Z,96038.13
2022-12-23T06:25:41.195Z,96039.16
2022-12-23T06:28:08.041Z,96042.69
2022-12-23T06:30:35.329Z,96035.63
2022-12-23T06:33:02.143Z,96033.59
2022-12-23T06:35:28.922Z,96034.41
2022-12-23T06:37:55.779Z,96029.63
2022-12-23T06:40:22.599Z,96029.63
2022-12-23T06:42:49.526Z,96030.47
2022-12-23T06:45:16.369Z,96029.63
2022-12-23T06:47:43.168Z,96035.88
2022-12-23T06:50:10.418Z,96042.31
2022-12-23T06:52:37.208Z,96040.63
2022-12-23T06:55:04.446Z,96035.63
2022-12-23T06:57:31.196Z,96043.28
2022-12-23T06:59:57.968Z,96050.13
2022-12-23T07:02:26.273Z,96041.59
2022-12-23T07:04:53.116Z,96049.28
2022-12-23T07:07:19.894Z,96058.56
2022-12-23T07:09:46.668Z,96053.56
2022-12-23T07:12:13.437Z,96062.06
2022-12-23T07:14:40.265Z,96062.66
2022-12-23T07:17:07.172Z,96068.84
2022-12-23T07:19:34.135Z,96074.63
2022-12-23T07:22:01.516Z,96070.88
2022-12-23T07:24:28.329Z,96076.84
2022-12-23T07:26:55.852Z,96069.34
2022-12-23T07:29:22.654Z,96067.03
2022-12-23T07:31:49.529Z,96062.03
2022-12-23T07:34:16.418Z,96074.03
2022-12-23T07:36:43.198Z,96070.91
2022-12-23T07:39:10.208Z,96069.63
2022-12-23T07:41:37.023Z,96089.50
2022-12-23T07:44:08.681Z,96074.72
2022-12-23T07:46:35.665Z,96074.09
2022-12-23T07:49:02.547Z,96074.09
2022-12-23T07:51:29.510Z,96083.22
2022-12-23T07:53:56.356Z,96088.59
2022-12-23T07:56:23.711Z,96089.44
2022-12-23T07:58:52.097Z,96095.44
2022-12-23T08:01:20.252Z,96099.66
2022-12-23T08:03:47.833Z,96100.28
2022-12-23T08:06:16.148Z,96107.34
2022-12-23T08:08:45.249Z,96111.50
2022-12-23T08:11:14.211Z,96106.56
2022-12-23T08:13:44.565Z,96099.13
2022-12-23T08:16:12.314Z,96099.16
2022-12-23T08:18:41.224Z,96102.31
2022-12-23T08:21:15.722Z,96102.75
2022-12-23T08:23:43.892Z,96095.34
2022-12-23T08:26:21.120Z,96108.63
2022-12-23T08:28:49.176Z,96099.56
2022-12-23T08:31:18.886Z,96098.97
2022-12-23T08:33:50.556Z,96094.84
2022-12-23T08:36:23.351Z,96077.25
2022-12-23T08:38:53.668Z,96071.06
2022-12-23T08:41:23.156Z,96074.53
2022-12-23T08:43:50.139Z,96085.63
2022-12-23T08:46:17.192Z,96079.84
2022-12-23T08:48:49.182Z,96081.50
2022-12-23T08:51:19.481Z,96080.28
2022-12-23T08:53:47.324Z,96077.38
2022-12-23T08:56:18.915Z,96074.66
2022-12-23T08:58:47.713Z,96083.19
2022-12-23T09:01:17.383Z,96092.78
2022-12-23T09:03:45.254Z,96089.66
2022-12-23T09:06:29.617Z,96086.94
2022-12-23T09:08:58.001Z,96096.13
2022-12-23T09:11:27.867Z,96094.88
2022-12-23T09:13:56.518Z,96094.69
2022-12-23T09:16:23.733Z,96091.56
2022-12-23T09:18:50.620Z,96086.81
2022-12-23T09:21:22.997Z,96092.44
2022-12-23T09:23:50.855Z,96087.66
2022-12-23T09:26:28.144Z,96090.75
2022-12-23T09:28:56.107Z,96088.47
2022-12-23T09:31:23.724Z,96080.19
2022-12-23T09:33:53.005Z,96067.72
2022-12-23T09:36:21.214Z,96064.00
2022-12-23T09:38:53.810Z,96055.28
2022-12-23T09:41:39.314Z,96062.09
2022-12-23T09:44:49.098Z,96061.69
2022-12-23T09:47:22.154Z,96051.09
2022-12-23T09:49:58.435Z,96047.75
2022-12-23T09:52:40.632Z,96055.22
2022-12-23T09:55:10.928Z,96046.91
2022-12-23T09:58:03.594Z,96036.53
2022-12-23T10:00:39.740Z,96043.78
2022-12-23T10:03:29.396Z,96046.03
2022-12-23T10:06:25.088Z,96059.97
2022-12-23T10:08:58.856Z,96061.41
2022-12-23T10:11:31.317Z,96061.41
2022-12-23T10:14:18.671Z,96050.81
2022-12-23T10:16:53.884Z,96057.06
2022-12-23T10:19:42.273Z,96046.47
2022-12-23T10:22:41.193Z,96039.22
2022-12-23T10:25:21.690Z,96048.97
2022-12-23T10:27:48.463Z,96042.13
2022-12-23T10:30:51.432Z,96039.44
2022-12-23T10:33:26.436Z,96029.69
2022-12-23T10:36:20.295Z,96028.84
2022-12-23T10:39:00.771Z,96017.84
2022-12-23T10:41:47.107Z,96015.16
2022-12-23T10:44:38.674Z,96011.84
2022-12-23T10:47:36.692Z,96012.41
2022-12-23T10:50:27.935Z,96000.41
2022-12-23T10:52:56.726Z,95994.34
2022-12-23T10:55:33.518Z,95997.09
2022-12-23T10:58:09.322Z,96000.78
2022-12-23T11:00:40.141Z,96005.19
2022-12-23T11:03:18.832Z,96002.66
2022-12-23T11:05:49.506Z,96002.28
2022-12-23T11:08:17.113Z,95993.97
2022-12-23T11:10:44.145Z,95997.31
2022-12-23T11:13:10.971Z,95993.34
2022-12-23T11:15:41.492Z,95987.97
2022-12-23T11:18:14.347Z,95985.91
2022-12-23T11:20:45.862Z,95987.16
2022-12-23T11:23:32.362Z,95994.22
2022-12-23T11:26:08.699Z,95981.38
2022-12-23T11:28:38.705Z,95978.06
2022-12-23T11:31:11.604Z,95964.13
2022-12-23T11:33:55.635Z,95971.69
2022-12-23T11:36:25.411Z,95949.91
2022-12-23T11:39:02.922Z,95944.91
2022-12-23T11:41:44.478Z,95942.19
2022-12-23T11:44:24.325Z,95942.84
2022-12-23T11:46:51.519Z,95943.06
2022-12-23T11:49:25.926Z,95938.69
2022-12-23T11:52:04.844Z,95932.66
2022-12-23T11:54:34.144Z,95926.03
2022-12-23T11:57:04.839Z,95914.41
2022-12-23T11:59:34.805Z,95915.88
2022-12-23T12:02:04.987Z,95904.41
2022-12-23T12:04:35.629Z,95897.16
2022-12-23T12:07:04.328Z,95887.00
2022-12-23T12:09:32.356Z,95882.63
2022-12-23T12:12:06.419Z,95878.25
2022-12-23T12:14:44.594Z,95879.53
2022-12-23T12:17:18.959Z,95867.69
2022-12-23T12:20:26.631Z,95869.31
2022-12-23T12:23:00.520Z,95860.00
2022-12-23T12:25:57.758Z,95859.56
2022-12-23T12:28:32.688Z,95851.91
2022-12-23T12:31:35.595Z,95844.44
2022-12-23T12:34:05.975Z,95850.25
2022-12-23T12:36:48.873Z,95840.06
2022-12-23T12:39:34.034Z,95842.97
2022-12-23T12:42:12.569Z,95839.25
2022-12-23T12:45:21.237Z,95834.03
2022-12-23T12:48:22.536Z,95833.22
2022-12-23T12:51:21.398Z,95834.03
2022-12-23T12:54:06.750Z,95828.44
2022-12-23T12:56:57.897Z,95830.28
2022-12-23T12:59:34.994Z,95818.91
2022-12-23T13:02:28.888Z,95817.03
2022-12-23T13:05:32.814Z,95811.41
2022-12-23T13:08:45.909Z,95810.59
2022-12-23T13:11:44.903Z,95808.50
2022-12-23T13:14:45.898Z,95811.00
2022-12-23T13:17:33.446Z,95800.81
2022-12-23T13:20:25.584Z,95813.06
2022-12-23T13:23:20.791Z,95808.09
2022-12-23T13:25:57.765Z,95809.97
2022-12-23T13:29:04.709Z,95803.91
2022-12-23T13:31:49.804Z,95806.44
2022-12-23T13:34:57.738Z,95810.59
2022-12-23T13:37:43.059Z,95798.94
2022-12-23T13:40:27.795Z,95797.09
2022-12-23T13:43:00.112Z,95797.69
2022-12-23T13:45:35.729Z,95793.13
2022-12-23T13:48:06.780Z,95787.72
2022-12-23T13:50:45.891Z,95771.94
2022-12-23T13:53:31.970Z,95773.22
2022-12-23T13:56:10.339Z,95770.28
2022-12-23T13:58:39.882Z,95775.28
2022-12-23T14:01:09.651Z,95781.50
2022-12-23T14:03:38.358Z,95776.31
2022-12-23T14:06:40.418Z,95775.28
2022-12-23T14:09:07.328Z,95777.34
2022-12-23T14:11:35.134Z,95776.31
2022-12-23T14:14:06.013Z,95769.06
2022-12-23T14:16:35.651Z,95773.63
2022-12-23T14:19:29.623Z,95773.41
2022-12-23T14:22:38.211Z,95771.56
2022-12-23T14:25:47.690Z,95768.00
2022-12-23T14:28:57.007Z,95769.47
2022-12-23T14:31:41.808Z,95779.66
2022-12-23T14:34:17.787Z,95773.22
2022-12-23T14:37:20.578Z,95771.75
2022-12-23T14:39:49.124Z,95766.94
2022-12-23T14:42:42.018Z,95769.25
2022-12-23T14:45:36.947Z,95767.59
2022-12-23T14:48:47.872Z,95773.22
2022-12-23T14:51:35.912Z,95773.22
2022-12-23T14:54:02.654Z,95777.75
2022-12-23T14:57:06.896Z,95785.06
2022-12-23T14:59:58.550Z,95783.19
2022-12-23T15:02:39.021Z,95789.19
2022-12-23T15:05:06.821Z,95784.63
2022-12-23T15:07:44.343Z,95787.72
2022-12-23T15:10:22.458Z,95791.88
2022-12-23T15:13:06.057Z,95796.47
2022-12-23T15:15:33.674Z,95784.63
2022-12-23T15:18:12.415Z,95799.56
2022-12-23T15:20:39.933Z,95807.88
2022-12-23T15:23:14.845Z,95797.47
2022-12-23T15:25:48.517Z,95802.69
2022-12-23T15:28:22.122Z,95802.47
2022-12-23T15:30:54.203Z,95807.88
2022-12-23T15:34:01.424Z,95809.31
2022-12-23T15:36:12.977Z,95807.66
2022-12-23T15:38:40.305Z,95819.69
2022-12-23T15:41:17.288Z,95820.91
2022-12-23T15:43:44.546Z,95818.44
2022-12-23T15:46:29.801Z,95826.97
2022-12-23T15:48:58.081Z,95806.59
2022-12-23T15:52:05.918Z,95814.28
2022-12-23T15:54:34.524Z,95804.13
2022-12-23T15:57:03.080Z,95816.75
2022-12-23T15:59:36.579Z,95805.97
2022-12-23T16:03:00.249Z,95808.47
2022-12-23T16:05:38.072Z,95803.25
2022-12-23T16:08:13.286Z,95799.50
2022-12-23T16:10:40.695Z,95808.44
2022-12-23T16:13:19.847Z,95799.94
2022-12-23T16:15:47.359Z,95802.81
2022-12-23T16:18:31.626Z,95802.81
2022-12-23T16:21:02.770Z,95811.56
2022-12-23T16:23:36.466Z,95802.63
2022-12-23T16:26:04.130Z,95807.38
2022-12-23T16:28:53.343Z,95814.25
2022-12-23T16:31:21.330Z,95828.59
2022-12-23T16:33:50.801Z,95821.31
2022-12-23T16:36:26.830Z,95831.69
2022-12-23T16:38:59.985Z,95818.78
2022-12-23T16:41:27.042Z,95816.72
2022-12-23T16:43:53.938Z,95832.94
2022-12-23T16:46:23.147Z,95818.38
2022-12-23T16:49:04.637Z,95817.13
2022-12-23T16:51:33.887Z,95813.81
2022-12-23T16:54:01.847Z,95800.28
2022-12-23T16:56:34.574Z,95801.34
2022-12-23T16:59:01.527Z,95796.34
2022-12-23T17:01:32.622Z,95791.13
2022-12-23T17:04:00.014Z,95794.25
2022-12-23T17:06:27.853Z,95779.50
2022-12-23T17:08:56.537Z,95794.66
2022-12-23T17:11:36.362Z,95805.69
2022-12-23T17:14:09.114Z,95803.59
2022-12-23T17:16:39.363Z,95805.88
2022-12-23T17:19:06.163Z,95803.81
2022-12-23T17:21:37.122Z,95801.28
2022-12-23T17:24:09.687Z,95809.41
2022-12-23T17:26:36.484Z,95809.59
2022-12-23T17:29:05.296Z,95811.28
2022-12-23T17:31:34.467Z,95812.09
2022-12-23T17:34:02.056Z,95817.50
2022-12-23T17:36:29.421Z,95823.50
2022-12-23T17:38:56.416Z,95824.31
2022-12-23T17:41:28.863Z,95833.72
2022-12-23T17:43:55.991Z,95833.28
2022-12-23T17:46:23.259Z,95839.72
2022-12-23T17:48:50.148Z,95835.16
2022-12-23T17:51:22.128Z,95849.94
2022-12-23T17:53:56.930Z,95822.28
2022-12-23T17:56:25.957Z,95839.53
2022-12-23T17:58:52.769Z,95844.53
2022-12-23T18:01:30.304Z,95918.97
2022-12-23T18:03:59.135Z,95836.69
2022-12-23T18:06:28.364Z,95856.66
2022-12-23T18:08:58.826Z,95865.38
2022-12-23T18:11:44.692Z,95855.00
2022-12-23T18:14:19.934Z,95857.50
2022-12-23T18:16:46.871Z,95850.44
2022-12-23T18:19:20.069Z,95854.19
2022-12-23T18:21:47.372Z,95858.13
2022-12-23T18:24:14.445Z,95863.72
2022-12-23T18:26:41.276Z,95854.81
2022-12-23T18:29:08.048Z,95887.19
2022-12-23T18:31:37.409Z,95882.59
2022-12-23T18:34:04.527Z,95898.75
2022-12-23T18:36:33.806Z,95904.13
2022-12-23T18:39:01.043Z,95909.97
2022-12-23T18:41:27.961Z,95915.53
2022-12-23T18:43:55.054Z,95906.84
2022-12-23T18:46:22.059Z,95903.50
2022-12-23T18:48:49.420Z,95908.91
2022-12-23T18:51:19.384Z,95905.38
2022-12-23T18:53:47.099Z,95915.53
2022-12-23T18:56:19.956Z,95916.16
2022-12-23T18:58:47.123Z,95926.78
2022-12-23T19:01:16.247Z,95927.59
2022-12-23T19:03:43.725Z,95939.81
2022-12-23T19:06:14.267Z,95915.75
2022-12-23T19:08:42.784Z,95933.59
2022-12-23T19:11:20.738Z,95919.50
2022-12-23T19:13:47.987Z,95908.94
2022-12-23T19:16:18.248Z,95925.94
2022-12-23T19:18:46.906Z,95938.19
2022-12-23T19:21:14.640Z,95921.81
2022-12-23T19:23:42.380Z,95925.97
2022-12-23T19:26:11.996Z,95937.59
2022-12-23T19:28:41.159Z,95949.00
2022-12-23T19:31:13.264Z,95956.47
2022-12-23T19:33:42.538Z,95951.09
2022-12-23T19:36:10.936Z,95961.88
2022-12-23T19:38:37.999Z,95955.66
2022-12-23T19:41:07.006Z,95988.84
2022-12-23T19:43:35.907Z,95984.69
2022-12-23T19:46:07.762Z,95984.47
2022-12-23T19:48:35.281Z,95985.69
2022-12-23T19:51:07.216Z,95986.13
2022-12-23T19:53:34.890Z,95984.44
2022-12-23T19:56:05.076Z,95965.97
2022-12-23T19:58:35.360Z,95973.00
2022-12-23T20:01:15.488Z,95969.03
2022-12-23T20:03:43.771Z,95976.47
2022-12-23T20:06:19.629Z,96002.78
2022-12-23T20:08:46.975Z,95987.81
2022-12-23T20:11:17.201Z,95990.06
2022-12-23T20:13:44.844Z,95990.84
2022-12-23T20:16:12.200Z,95993.53
2022-12-23T20:18:39.230Z,96003.25
2022-12-23T20:21:06.885Z,96016.28
2022-12-23T20:23:34.256Z,96028.47
2022-12-23T20:26:01.555Z,95985.97
2022-12-23T20:28:29.203Z,96017.03
2022-12-23T20:31:07.943Z,96022.16
2022-12-23T20:33:36.958Z,96015.94
2022-12-23T20:36:06.889Z,96031.47
2022-12-23T20:38:35.580Z,96047.78
2022-12-23T20:41:05.139Z,96049.66
2022-12-23T20:43:34.505Z,96061.66
2022-12-23T20:46:03.362Z,96071.78
2022-12-23T20:48:34.031Z,96079.69
2022-12-23T20:51:11.742Z,96083.59
2022-12-23T20:53:38.834Z,96081.34
2022-12-23T20:56:16.078Z,96077.38
2022-12-23T20:58:55.551Z,96073.25
2022-12-23T21:01:32.965Z,96075.72
2022-12-23T21:04:03.599Z,96097.06
2022-12-23T21:06:32.340Z,96078.00
2022-12-23T21:09:00.291Z,96091.88
2022-12-23T21:11:37.766Z,96092.44
2022-12-23T21:14:07.144Z,96139.50
2022-12-23T21:16:36.056Z,96093.09
2022-12-23T21:19:03.943Z,96088.72
2022-12-23T21:21:31.741Z,96121.06
2022-12-23T21:24:03.949Z,96072.13
2022-12-23T21:26:32.885Z,96092.44
2022-12-23T21:29:01.812Z,96087.03
2022-12-23T21:31:30.797Z,96093.28
2022-12-23T21:33:58.739Z,96110.28
2022-12-23T21:36:29.356Z,96121.22
2022-12-23T21:38:56.808Z,96138.06
2022-12-23T21:41:29.222Z,96134.69
2022-12-23T21:43:58.037Z,96153.38
2022-12-23T21:46:26.019Z,96142.78
2022-12-23T21:48:53.246Z,96157.09
2022-12-23T21:51:27.905Z,96152.72
2022-12-23T21:53:59.301Z,96153.38
2022-12-23T21:56:29.585Z,96159.78
2022-12-23T21:58:58.975Z,96153.38
2022-12-23T22:01:26.773Z,96179.28
2022-12-23T22:03:55.421Z,96194.63
2022-12-23T22:06:37.034Z,96157.28
2022-12-23T22:09:06.089Z,96163.13
2022-12-23T22:11:36.681Z,96162.91
2022-12-23T22:14:06.953Z,96140.16
2022-12-23T22:16:35.112Z,96158.00
2022-12-23T22:19:03.957Z,96163.00
2022-12-23T22:21:33.445Z,96167.34
2022-12-23T22:24:00.401Z,96175.44
2022-12-23T22:26:31.249Z,96171.91
2022-12-23T22:29:01.216Z,96170.88
2022-12-23T22:31:37.289Z,96172.03
2022-12-23T22:34:05.047Z,96172.28
2022-12-23T22:36:32.428Z,96181.41
2022-12-23T22:39:01.148Z,96168.97
2022-12-23T22:41:30.359Z,96180.56
2022-12-23T22:43:58.217Z,96169.81
2022-12-23T22:46:26.537Z,96177.06
2022-12-23T22:48:54.013Z,96170.84
2022-12-23T22:51:24.609Z,96161.25
2022-12-23T22:53:51.875Z,96173.06
2022-12-23T22:56:20.609Z,96176.97
2022-12-23T22:58:47.699Z,96173.44
2022-12-23T23:01:30.983Z,96164.28
2022-12-23T23:04:00.655Z,96173.19
2022-12-23T23:06:37.648Z,96180.56
2022-12-23T23:09:07.173Z,96190.75
2022-12-23T23:11:34.305Z,96180.81
2022-12-23T23:14:02.690Z,96190.94
2022-12-23T23:16:29.770Z,96184.53
2022-12-23T23:18:58.531Z,96185.38
2022-12-23T23:21:25.883Z,96179.97
2022-12-23T23:23:52.913Z,96164.66
2022-12-23T23:26:20.665Z,96179.16
2022-12-23T23:28:48.092Z,96183.72
2022-12-23T23:34:01.767Z,96183.25
2022-12-23T23:36:28.663Z,96185.75
2022-12-23T23:38:55.496Z,96213.50
2022-12-23T23:41:23.581Z,96219.72
2022-12-23T23:43:51.938Z,96216.84
2022-12-23T23:46:18.994Z,96230.13
2022-12-23T23:48:45.935Z,96229.09
2022-12-23T23:51:12.900Z,96239.69
2022-12-23T23:53:40.236Z,96239.28
2022-12-23T23:56:08.346Z,96249.06
2022-12-23T23:58:36.570Z,96248.66
